sensor_id;sensor_type;location;lat;lon;timestamp;pressure;altitude;pressure_sealevel;temperature;humidity
4012;BME280;2020;48.682;9.024;2023-11-19T00:00:27;96407.22;;;5.72;100.00
4012;BME280;2020;48.682;9.024;2023-11-19T00:02:52;96406.16;;;5.75;100.00
4012;BME280;2020;48.682;9.024;2023-11-19T00:05:18;96405.06;;;5.77;100.00
4012;BME280;2020;48.682;9.024;2023-11-19T00:07:43;96404.13;;;5.78;100.00
4012;BME280;2020;48.682;9.024;2023-11-19T00:10:10;96396.38;;;5.78;100.00
4012;BME280;2020;48.682;9.024;2023-11-19T00:12:41;96387.69;;;5.79;100.00
4012;BME280;2020;48.682;9.024;2023-11-19T00:15:07;96384.16;;;5.80;100.00
4012;BME280;2020;48.682;9.024;2023-11-19T00:17:37;96379.00;;;5.80;100.00
4012;BME280;2020;48.682;9.024;2023-11-19T00:20:03;96368.66;;;5.80;100.00
4012;BME280;2020;48.682;9.024;2023-11-19T00:22:31;96379.00;;;5.80;100.00
4012;BME280;2020;48.682;9.024;2023-11-19T00:24:56;96377.09;;;5.82;100.00
4012;BME280;2020;48.682;9.024;2023-11-19T00:27:21;96389.06;;;5.83;100.00
4012;BME280;2020;48.682;9.024;2023-11-19T00:29:47;96379.56;;;5.84;100.00
4012;BME280;2020;48.682;9.024;2023-11-19T00:32:12;96369.78;;;5.88;100.00
4012;BME280;2020;48.682;9.024;2023-11-19T00:34:38;96365.19;;;5.91;100.00
4012;BME280;2020;48.682;9.024;2023-11-19T00:37:03;96354.72;;;5.93;100.00
4012;BME280;2020;48.682;9.024;2023-11-19T00:39:29;96362.22;;;5.96;100.00
4012;BME280;2020;48.682;9.024;2023-11-19T00:41:54;96353.06;;;6.03;100.00
4012;BME280;2020;48.682;9.024;2023-11-19T00:44:19;96350.63;;;6.11;100.00
4012;BME280;2020;48.682;9.024;2023-11-19T00:46:44;96332.53;;;6.11;100.00
4012;BME280;2020;48.682;9.024;2023-11-19T00:49:10;96331.34;;;6.16;100.00
4012;BME280;2020;48.682;9.024;2023-11-19T00:51:36;96330.53;;;6.25;100.00
4012;BME280;2020;48.682;9.024;2023-11-19T00:54:02;96331.91;;;6.29;100.00
4012;BME280;2020;48.682;9.024;2023-11-19T00:56:28;96333.97;;;6.35;100.00
4012;BME280;2020;48.682;9.024;2023-11-19T00:58:54;96323.63;;;6.35;100.00
4012;BME280;2020;48.682;9.024;2023-11-19T01:01:19;96318.63;;;6.53;100.00
4012;BME280;2020;48.682;9.024;2023-11-19T01:03:44;96318.34;;;6.56;100.00
4012;BME280;2020;48.682;9.024;2023-11-19T01:06:09;96317.28;;;6.59;100.00
4012;BME280;2020;48.682;9.024;2023-11-19T01:08:35;96312.09;;;6.59;100.00
4012;BME280;2020;48.682;9.024;2023-11-19T01:11:01;96319.22;;;6.67;100.00
4012;BME280;2020;48.682;9.024;2023-11-19T01:13:27;96315.38;;;6.61;100.00
4012;BME280;2020;48.682;9.024;2023-11-19T01:15:52;96318.94;;;6.70;100.00
4012;BME280;2020;48.682;9.024;2023-11-19T01:18:18;96311.56;;;6.65;100.00
4012;BME280;2020;48.682;9.024;2023-11-19T01:20:43;96311.31;;;6.68;100.00
4012;BME280;2020;48.682;9.024;2023-11-19T01:23:08;96307.75;;;6.69;100.00
4012;BME280;2020;48.682;9.024;2023-11-19T01:25:33;96300.69;;;6.71;100.00
4012;BME280;2020;48.682;9.024;2023-11-19T01:28:00;96300.00;;;6.69;100.00
4012;BME280;2020;48.682;9.024;2023-11-19T01:30:27;96290.34;;;6.71;100.00
4012;BME280;2020;48.682;9.024;2023-11-19T01:32:52;96286.81;;;6.72;100.00
4012;BME280;2020;48.682;9.024;2023-11-19T01:35:18;96298.78;;;6.73;100.00
4012;BME280;2020;48.682;9.024;2023-11-19T01:37:43;96297.16;;;6.72;100.00
4012;BME280;2020;48.682;9.024;2023-11-19T01:40:09;96297.16;;;6.72;100.00
4012;BME280;2020;48.682;9.024;2023-11-19T01:42:37;96302.03;;;6.76;100.00
4012;BME280;2020;48.682;9.024;2023-11-19T01:45:07;96300.16;;;6.78;100.00
4012;BME280;2020;48.682;9.024;2023-11-19T01:47:34;96303.41;;;6.80;100.00
4012;BME280;2020;48.682;9.024;2023-11-19T01:50:01;96297.97;;;6.83;100.00
4012;BME280;2020;48.682;9.024;2023-11-19T01:52:27;96291.44;;;6.98;100.00
4012;BME280;2020;48.682;9.024;2023-11-19T01:54:53;96298.22;;;6.99;100.00
4012;BME280;2020;48.682;9.024;2023-11-19T01:57:22;96294.41;;;7.03;100.00
4012;BME280;2020;48.682;9.024;2023-11-19T01:59:51;96292.91;;;7.11;100.00
4012;BME280;2020;48.682;9.024;2023-11-19T02:02:18;96287.84;;;7.19;100.00
4012;BME280;2020;48.682;9.024;2023-11-19T02:04:46;96283.75;;;7.26;100.00
4012;BME280;2020;48.682;9.024;2023-11-19T02:07:13;96281.03;;;7.28;100.00
4012;BME280;2020;48.682;9.024;2023-11-19T02:09:42;96285.41;;;7.27;100.00
4012;BME280;2020;48.682;9.024;2023-11-19T02:12:07;96281.59;;;7.31;100.00
4012;BME280;2020;48.682;9.024;2023-11-19T02:14:33;96291.41;;;7.38;100.00
4012;BME280;2020;48.682;9.024;2023-11-19T02:16:58;96276.66;;;7.38;100.00
4012;BME280;2020;48.682;9.024;2023-11-19T02:19:23;96277.22;;;7.42;100.00
4012;BME280;2020;48.682;9.024;2023-11-19T02:21:49;96282.41;;;7.42;100.00
4012;BME280;2020;48.682;9.024;2023-11-19T02:24:17;96277.22;;;7.42;100.00
4012;BME280;2020;48.682;9.024;2023-11-19T02:27:08;96262.75;;;7.49;100.00
4012;BME280;2020;48.682;9.024;2023-11-19T02:29:36;96266.28;;;7.48;100.00
4012;BME280;2020;48.682;9.024;2023-11-19T02:32:01;96271.19;;;7.51;100.00
4012;BME280;2020;48.682;9.024;2023-11-19T02:34:27;96272.00;;;7.52;100.00
4012;BME280;2020;48.682;9.024;2023-11-19T02:36:52;96269.56;;;7.50;100.00
4012;BME280;2020;48.682;9.024;2023-11-19T02:39:18;96267.66;;;7.52;100.00
4012;BME280;2020;48.682;9.024;2023-11-19T02:41:47;96266.97;;;7.50;100.00
4012;BME280;2020;48.682;9.024;2023-11-19T02:44:12;96272.81;;;7.52;100.00
4012;BME280;2020;48.682;9.024;2023-11-19T02:46:38;96275.25;;;7.54;100.00
4012;BME280;2020;48.682;9.024;2023-11-19T02:49:03;96275.81;;;7.57;100.00
4012;BME280;2020;48.682;9.024;2023-11-19T02:51:29;96282.63;;;7.58;100.00
4012;BME280;2020;48.682;9.024;2023-11-19T02:53:55;96287.66;;;7.60;100.00
4012;BME280;2020;48.682;9.024;2023-11-19T02:56:20;96277.16;;;7.61;100.00
4012;BME280;2020;48.682;9.024;2023-11-19T02:58:51;96285.59;;;7.64;100.00
4012;BME280;2020;48.682;9.024;2023-11-19T03:01:26;96271.03;;;7.63;100.00
4012;BME280;2020;48.682;9.024;2023-11-19T03:04:01;96270.34;;;7.60;100.00
4012;BME280;2020;48.682;9.024;2023-11-19T03:06:27;96272.94;;;7.60;100.00
4012;BME280;2020;48.682;9.024;2023-11-19T03:08:54;96278.22;;;7.69;100.00
4012;BME280;2020;48.682;9.024;2023-11-19T03:11:20;96278.22;;;7.69;100.00
4012;BME280;2020;48.682;9.024;2023-11-19T03:13:45;96283.81;;;7.64;100.00
4012;BME280;2020;48.682;9.024;2023-11-19T03:16:12;96278.50;;;7.66;100.00
4012;BME280;2020;48.682;9.024;2023-11-19T03:18:37;96281.78;;;7.68;100.00
4012;BME280;2020;48.682;9.024;2023-11-19T03:21:04;96282.72;;;7.67;100.00
4012;BME280;2020;48.682;9.024;2023-11-19T03:23:30;96281.78;;;7.68;100.00
4012;BME280;2020;48.682;9.024;2023-11-19T03:25:56;96273.03;;;7.69;100.00
4012;BME280;2020;48.682;9.024;2023-11-19T03:28:22;96269.63;;;7.68;100.00
4012;BME280;2020;48.682;9.024;2023-11-19T03:30:47;96278.22;;;7.69;100.00
4012;BME280;2020;48.682;9.024;2023-11-19T03:33:12;96274.69;;;7.70;100.00
4012;BME280;2020;48.682;9.024;2023-11-19T03:35:37;96280.53;;;7.72;100.00
4012;BME280;2020;48.682;9.024;2023-11-19T03:38:03;96277.94;;;7.72;100.00
4012;BME280;2020;48.682;9.024;2023-11-19T03:40:28;96274.38;;;7.73;100.00
4012;BME280;2020;48.682;9.024;2023-11-19T03:42:56;96263.88;;;7.74;100.00
4012;BME280;2020;48.682;9.024;2023-11-19T03:45:22;96262.09;;;7.75;100.00
4012;BME280;2020;48.682;9.024;2023-11-19T03:47:47;96270.69;;;7.75;100.00
4012;BME280;2020;48.682;9.024;2023-11-19T03:50:14;96259.63;;;7.83;100.00
4012;BME280;2020;48.682;9.024;2023-11-19T03:52:40;96275.16;;;7.83;100.00
4012;BME280;2020;48.682;9.024;2023-11-19T03:55:06;96268.34;;;7.82;100.00
4012;BME280;2020;48.682;9.024;2023-11-19T03:57:33;96263.41;;;7.89;100.00
4012;BME280;2020;48.682;9.024;2023-11-19T03:59:58;96259.03;;;7.89;100.00
4012;BME280;2020;48.682;9.024;2023-11-19T04:02:24;96261.88;;;7.96;100.00
4012;BME280;2020;48.682;9.024;2023-11-19T04:04:52;96256.84;;;7.95;100.00
4012;BME280;2020;48.682;9.024;2023-11-19T04:07:18;96242.63;;;7.99;100.00
4012;BME280;2020;48.682;9.024;2023-11-19T04:09:43;96237.16;;;8.02;100.00
4012;BME280;2020;48.682;9.024;2023-11-19T04:12:08;96251.38;;;7.98;100.00
4012;BME280;2020;48.682;9.024;2023-11-19T04:14:33;96260.94;;;7.97;100.00
4012;BME280;2020;48.682;9.024;2023-11-19T04:16:59;96280.16;;;7.95;100.00
4012;BME280;2020;48.682;9.024;2023-11-19T04:19:24;96272.09;;;7.98;100.00
4012;BME280;2020;48.682;9.024;2023-11-19T04:21:49;96264.72;;;8.03;100.00
4012;BME280;2020;48.682;9.024;2023-11-19T04:24:15;96266.06;;;8.07;100.00
4012;BME280;2020;48.682;9.024;2023-11-19T04:26:41;96264.13;;;8.09;100.00
4012;BME280;2020;48.682;9.024;2023-11-19T04:29:11;96265.47;;;8.13;100.00
4012;BME280;2020;48.682;9.024;2023-11-19T04:31:37;96275.16;;;8.11;100.00
4012;BME280;2020;48.682;9.024;2023-11-19T04:34:02;96283.22;;;8.08;100.00
4012;BME280;2020;48.682;9.024;2023-11-19T04:36:27;96274.22;;;8.12;100.00
4012;BME280;2020;48.682;9.024;2023-11-19T04:38:54;96273.91;;;8.15;100.00
4012;BME280;2020;48.682;9.024;2023-11-19T04:41:20;96274.59;;;8.17;100.00
4012;BME280;2020;48.682;9.024;2023-11-19T04:43:45;96276.91;;;8.20;100.00
4012;BME280;2020;48.682;9.024;2023-11-19T04:46:10;96274.69;;;8.26;100.00
4012;BME280;2020;48.682;9.024;2023-11-19T04:48:35;96281.50;;;8.27;100.00
4012;BME280;2020;48.682;9.024;2023-11-19T04:51:01;96277.56;;;8.23;100.00
4012;BME280;2020;48.682;9.024;2023-11-19T04:53:26;96283.88;;;8.20;100.00
4012;BME280;2020;48.682;9.024;2023-11-19T04:55:51;96277.19;;;8.17;100.00
4012;BME280;2020;48.682;9.024;2023-11-19T04:58:17;96281.03;;;8.13;100.00
4012;BME280;2020;48.682;9.024;2023-11-19T05:00:42;96287.84;;;8.14;100.00
4012;BME280;2020;48.682;9.024;2023-11-19T05:03:07;96281.31;;;8.10;100.00
4012;BME280;2020;48.682;9.024;2023-11-19T05:05:33;96274.50;;;8.09;100.00
4012;BME280;2020;48.682;9.024;2023-11-19T05:07:58;96279.69;;;8.09;100.00
4012;BME280;2020;48.682;9.024;2023-11-19T05:10:24;96278.06;;;8.08;100.00
4012;BME280;2020;48.682;9.024;2023-11-19T05:12:50;96275.47;;;8.08;100.00
4012;BME280;2020;48.682;9.024;2023-11-19T05:15:15;96278.88;;;8.09;100.00
4012;BME280;2020;48.682;9.024;2023-11-19T05:17:40;96273.41;;;8.12;100.00
4012;BME280;2020;48.682;9.024;2023-11-19T05:20:06;96269.69;;;8.14;100.00
4012;BME280;2020;48.682;9.024;2023-11-19T05:22:39;96267.09;;;8.14;100.00
4012;BME280;2020;48.682;9.024;2023-11-19T05:25:05;96277.19;;;8.17;100.00
4012;BME280;2020;48.682;9.024;2023-11-19T05:27:30;96278.16;;;8.16;100.00
4012;BME280;2020;48.682;9.024;2023-11-19T05:29:56;96284.00;;;8.18;100.00
4012;BME280;2020;48.682;9.024;2023-11-19T05:32:21;96284.00;;;8.18;100.00
4012;BME280;2020;48.682;9.024;2023-11-19T05:34:46;96290.00;;;8.19;100.00
4012;BME280;2020;48.682;9.024;2023-11-19T05:37:11;96286.59;;;8.18;100.00
4012;BME280;2020;48.682;9.024;2023-11-19T05:39:37;96278.22;;;8.25;100.00
4012;BME280;2020;48.682;9.024;2023-11-19T05:42:02;96277.56;;;8.23;100.00
4012;BME280;2020;48.682;9.024;2023-11-19T05:44:27;96274.16;;;8.22;100.00
4012;BME280;2020;48.682;9.024;2023-11-19T05:46:53;96279.34;;;8.22;100.00
4012;BME280;2020;48.682;9.024;2023-11-19T05:49:18;96277.56;;;8.23;100.00
4012;BME280;2020;48.682;9.024;2023-11-19T05:51:43;96275.94;;;8.22;100.00
4012;BME280;2020;48.682;9.024;2023-11-19T05:54:09;96278.53;;;8.22;100.00
4012;BME280;2020;48.682;9.024;2023-11-19T05:56:35;96285.34;;;8.23;100.00
4012;BME280;2020;48.682;9.024;2023-11-19T05:59:01;96285.06;;;8.26;100.00
4012;BME280;2020;48.682;9.024;2023-11-19T06:01:31;96284.75;;;8.29;100.00
4012;BME280;2020;48.682;9.024;2023-11-19T06:03:56;96283.13;;;8.28;100.00
4012;BME280;2020;48.682;9.024;2023-11-19T06:06:22;96288.31;;;8.28;100.00
4012;BME280;2020;48.682;9.024;2023-11-19T06:08:47;96288.03;;;8.31;100.00
4012;BME280;2020;48.682;9.024;2023-11-19T06:11:12;96287.22;;;8.30;100.00
4012;BME280;2020;48.682;9.024;2023-11-19T06:13:43;96280.91;;;8.33;100.00
4012;BME280;2020;48.682;9.024;2023-11-19T06:16:08;96284.47;;;8.32;100.00
4012;BME280;2020;48.682;9.024;2023-11-19T06:18:33;96277.34;;;8.34;100.00
4012;BME280;2020;48.682;9.024;2023-11-19T06:20:59;96290.31;;;8.34;100.00
4012;BME280;2020;48.682;9.024;2023-11-19T06:23:24;96286.41;;;8.30;100.00
4012;BME280;2020;48.682;9.024;2023-11-19T06:25:49;96286.41;;;8.30;100.00
4012;BME280;2020;48.682;9.024;2023-11-19T06:28:15;96288.84;;;8.31;100.00
4012;BME280;2020;48.682;9.024;2023-11-19T06:30:40;96274.94;;;8.32;100.00
4012;BME280;2020;48.682;9.024;2023-11-19T06:33:06;96282.53;;;8.34;100.00
4012;BME280;2020;48.682;9.024;2023-11-19T06:35:32;96284.19;;;8.35;100.00
4012;BME280;2020;48.682;9.024;2023-11-19T06:38:04;96281.59;;;8.35;100.00
4012;BME280;2020;48.682;9.024;2023-11-19T06:40:30;96284.19;;;8.35;100.00
4012;BME280;2020;48.682;9.024;2023-11-19T06:42:56;96287.44;;;8.37;100.00
4012;BME280;2020;48.682;9.024;2023-11-19T06:45:21;96290.69;;;8.39;100.00
4012;BME280;2020;48.682;9.024;2023-11-19T06:47:47;96285.53;;;8.39;100.00
4012;BME280;2020;48.682;9.024;2023-11-19T06:50:12;96281.97;;;8.40;100.00
4012;BME280;2020;48.682;9.024;2023-11-19T06:52:37;96288.78;;;8.41;100.00
4012;BME280;2020;48.682;9.024;2023-11-19T06:55:03;96295.47;;;8.44;100.00
4012;BME280;2020;48.682;9.024;2023-11-19T06:57:28;96296.28;;;8.44;100.00
4012;BME280;2020;48.682;9.024;2023-11-19T06:59:56;96295.31;;;8.45;100.00
4012;BME280;2020;48.682;9.024;2023-11-19T07:02:22;96291.50;;;8.49;100.00
4012;BME280;2020;48.682;9.024;2023-11-19T07:04:47;96295.00;;;8.48;100.00
4012;BME280;2020;48.682;9.024;2023-11-19T07:07:13;96304.47;;;8.49;100.00
4012;BME280;2020;48.682;9.024;2023-11-19T07:09:40;96302.78;;;8.48;100.00
4012;BME280;2020;48.682;9.024;2023-11-19T07:12:05;96291.19;;;8.53;100.00
4012;BME280;2020;48.682;9.024;2023-11-19T07:14:30;96296.38;;;8.53;100.00
4012;BME280;2020;48.682;9.024;2023-11-19T07:16:56;96291.19;;;8.53;100.00
4012;BME280;2020;48.682;9.024;2023-11-19T07:19:21;96304.03;;;8.54;100.00
4012;BME280;2020;48.682;9.024;2023-11-19T07:21:46;96320.41;;;8.55;100.00
4012;BME280;2020;48.682;9.024;2023-11-19T07:24:12;96316.41;;;8.60;100.00
4012;BME280;2020;48.682;9.024;2023-11-19T07:26:45;96306.16;;;8.59;100.00
4012;BME280;2020;48.682;9.024;2023-11-19T07:29:10;96323.09;;;8.63;100.00
4012;BME280;2020;48.682;9.024;2023-11-19T07:31:36;96323.63;;;8.67;100.00
4012;BME280;2020;48.682;9.024;2023-11-19T07:34:02;96334.81;;;8.67;100.00
4012;BME280;2020;48.682;9.024;2023-11-19T07:36:27;96338.09;;;8.69;100.00
4012;BME280;2020;48.682;9.024;2023-11-19T07:38:52;96352.03;;;8.68;100.00
4012;BME280;2020;48.682;9.024;2023-11-19T07:41:18;96344.63;;;8.73;100.00
4012;BME280;2020;48.682;9.024;2023-11-19T07:43:43;96348.00;;;8.74;100.00
4012;BME280;2020;48.682;9.024;2023-11-19T07:46:13;96352.53;;;8.72;100.00
4012;BME280;2020;48.682;9.024;2023-11-19T07:48:39;96350.78;;;8.72;100.00
4012;BME280;2020;48.682;9.024;2023-11-19T07:51:05;96350.59;;;8.74;100.00
4012;BME280;2020;48.682;9.024;2023-11-19T07:53:30;96351.16;;;8.77;100.00
4012;BME280;2020;48.682;9.024;2023-11-19T07:55:56;96362.19;;;8.80;100.00
4012;BME280;2020;48.682;9.024;2023-11-19T07:58:21;96352.47;;;8.82;100.00
4012;BME280;2020;48.682;9.024;2023-11-19T08:00:46;96348.09;;;8.82;100.00
4012;BME280;2020;48.682;9.024;2023-11-19T08:03:11;96338.53;;;8.83;100.00
4012;BME280;2020;48.682;9.024;2023-11-19T08:05:37;96334.97;;;8.84;100.00
4012;BME280;2020;48.682;9.024;2023-11-19T08:08:02;96344.41;;;8.85;100.00
4012;BME280;2020;48.682;9.024;2023-11-19T08:10:27;96347.22;;;8.91;100.00
4012;BME280;2020;48.682;9.024;2023-11-19T08:12:53;96350.47;;;8.93;100.00
4012;BME280;2020;48.682;9.024;2023-11-19T08:15:19;96334.09;;;8.93;100.00
4012;BME280;2020;48.682;9.024;2023-11-19T08:17:44;96330.53;;;8.94;100.00
4012;BME280;2020;48.682;9.024;2023-11-19T08:20:09;96329.94;;;9.00;100.00
4012;BME280;2020;48.682;9.024;2023-11-19T08:22:36;96328.31;;;8.99;100.00
4012;BME280;2020;48.682;9.024;2023-11-19T08:25:04;96329.66;;;9.03;100.00
4012;BME280;2020;48.682;9.024;2023-11-19T08:27:29;96327.41;;;9.09;100.00
4012;BME280;2020;48.682;9.024;2023-11-19T08:29:54;96334.25;;;9.10;100.00
4012;BME280;2020;48.682;9.024;2023-11-19T08:32:23;96333.94;;;9.13;100.00
4012;BME280;2020;48.682;9.024;2023-11-19T08:34:49;96346.38;;;9.27;100.00
4012;BME280;2020;48.682;9.024;2023-11-19T08:37:14;96354.59;;;9.41;100.00
4012;BME280;2020;48.682;9.024;2023-11-19T08:39:40;96346.13;;;9.83;100.00
4012;BME280;2020;48.682;9.024;2023-11-19T08:42:07;96345.50;;;9.89;100.00
4012;BME280;2020;48.682;9.024;2023-11-19T08:44:32;96353.72;;;9.76;100.00
4012;BME280;2020;48.682;9.024;2023-11-19T08:46:57;96343.78;;;9.72;100.00
4012;BME280;2020;48.682;9.024;2023-11-19T08:49:22;96345.75;;;9.78;100.00
4012;BME280;2020;48.682;9.024;2023-11-19T08:51:48;96339.09;;;10.02;100.00
4012;BME280;2020;48.682;9.024;2023-11-19T08:54:13;96343.19;;;10.13;100.00
4012;BME280;2020;48.682;9.024;2023-11-19T08:56:39;96327.44;;;10.14;100.00
4012;BME280;2020;48.682;9.024;2023-11-19T08:59:05;96322.06;;;10.50;100.00
4012;BME280;2020;48.682;9.024;2023-11-19T09:01:30;96340.31;;;10.59;100.00
4012;BME280;2020;48.682;9.024;2023-11-19T09:03:55;96340.19;;;10.68;100.00
4012;BME280;2020;48.682;9.024;2023-11-19T09:06:20;96333.78;;;10.55;100.00
4012;BME280;2020;48.682;9.024;2023-11-19T09:08:46;96337.06;;;10.65;100.00
4012;BME280;2020;48.682;9.024;2023-11-19T09:11:11;96335.31;;;10.65;100.00
4012;BME280;2020;48.682;9.024;2023-11-19T09:13:37;96342.66;;;10.87;100.00
4012;BME280;2020;48.682;9.024;2023-11-19T09:16:02;96343.63;;;10.94;100.00
4012;BME280;2020;48.682;9.024;2023-11-19T09:18:29;96338.44;;;11.10;100.00
4012;BME280;2020;48.682;9.024;2023-11-19T09:20:54;96348.22;;;11.17;100.00
4012;BME280;2020;48.682;9.024;2023-11-19T09:23:19;96345.59;;;11.00;100.00
4012;BME280;2020;48.682;9.024;2023-11-19T09:25:45;96348.38;;;10.90;100.00
4012;BME280;2020;48.682;9.024;2023-11-19T09:28:10;96343.59;;;10.77;100.00
4012;BME280;2020;48.682;9.024;2023-11-19T09:30:35;96358.63;;;11.00;100.00
4012;BME280;2020;48.682;9.024;2023-11-19T09:33:01;96345.63;;;11.41;100.00
4012;BME280;2020;48.682;9.024;2023-11-19T09:35:26;96361.59;;;11.55;100.00
4012;BME280;2020;48.682;9.024;2023-11-19T09:37:51;96360.63;;;11.48;100.00
4012;BME280;2020;48.682;9.024;2023-11-19T09:40:16;96359.66;;;11.40;100.00
4012;BME280;2020;48.682;9.024;2023-11-19T09:42:44;96359.00;;;11.30;100.00
4012;BME280;2020;48.682;9.024;2023-11-19T09:45:16;96348.22;;;11.17;100.00
4012;BME280;2020;48.682;9.024;2023-11-19T09:47:44;96349.50;;;11.04;100.00
4012;BME280;2020;48.682;9.024;2023-11-19T09:50:15;96348.84;;;11.02;100.00
4012;BME280;2020;48.682;9.024;2023-11-19T09:52:41;96341.72;;;11.46;100.00
4012;BME280;2020;48.682;9.024;2023-11-19T09:55:06;96345.94;;;11.72;100.00
4012;BME280;2020;48.682;9.024;2023-11-19T09:57:32;96340.75;;;11.55;100.00
4012;BME280;2020;48.682;9.024;2023-11-19T09:59:59;96338.81;;;11.40;100.00
4012;BME280;2020;48.682;9.024;2023-11-19T10:02:26;96343.19;;;11.40;100.00
4012;BME280;2020;48.682;9.024;2023-11-19T10:04:54;96337.50;;;11.36;100.00
4012;BME280;2020;48.682;9.024;2023-11-19T10:07:20;96330.47;;;11.62;100.00
4012;BME280;2020;48.682;9.024;2023-11-19T10:09:46;96324.03;;;11.97;100.00
4012;BME280;2020;48.682;9.024;2023-11-19T10:12:12;96313.22;;;12.17;100.00
4012;BME280;2020;48.682;9.024;2023-11-19T10:14:37;96333.13;;;12.18;100.00
4012;BME280;2020;48.682;9.024;2023-11-19T10:17:07;96329.50;;;12.27;100.00
4012;BME280;2020;48.682;9.024;2023-11-19T10:19:32;96325.28;;;12.18;100.00
4012;BME280;2020;48.682;9.024;2023-11-19T10:22:03;96327.56;;;12.21;100.00
4012;BME280;2020;48.682;9.024;2023-11-19T10:24:32;96328.59;;;12.12;100.00
4012;BME280;2020;48.682;9.024;2023-11-19T10:26:59;96326.59;;;12.22;100.00
4012;BME280;2020;48.682;9.024;2023-11-19T10:29:25;96328.16;;;12.40;100.00
4012;BME280;2020;48.682;9.024;2023-11-19T10:31:58;96326.03;;;12.75;100.00
4012;BME280;2020;48.682;9.024;2023-11-19T10:34:24;96325.03;;;12.76;100.00
4012;BME280;2020;48.682;9.024;2023-11-19T10:36:50;96316.75;;;12.96;100.00
4012;BME280;2020;48.682;9.024;2023-11-19T10:39:15;96326.28;;;12.89;100.00
4012;BME280;2020;48.682;9.024;2023-11-19T10:41:41;96327.31;;;12.79;99.64
4012;BME280;2020;48.682;9.024;2023-11-19T10:44:06;96323.25;;;13.00;100.00
4012;BME280;2020;48.682;9.024;2023-11-19T10:46:42;96322.31;;;12.93;100.00
4012;BME280;2020;48.682;9.024;2023-11-19T10:49:08;96315.94;;;12.72;100.00
4012;BME280;2020;48.682;9.024;2023-11-19T10:51:34;96318.59;;;12.64;100.00
4012;BME280;2020;48.682;9.024;2023-11-19T10:54:04;96309.16;;;12.54;100.00
4012;BME280;2020;48.682;9.024;2023-11-19T10:56:33;96306.56;;;12.46;100.00
4012;BME280;2020;48.682;9.024;2023-11-19T10:59:00;96305.59;;;12.47;100.00
4012;BME280;2020;48.682;9.024;2023-11-19T11:01:29;96301.34;;;12.46;100.00
4012;BME280;2020;48.682;9.024;2023-11-19T11:03:59;96296.47;;;12.43;100.00
4012;BME280;2020;48.682;9.024;2023-11-19T11:06:26;96293.06;;;12.42;100.00
4012;BME280;2020;48.682;9.024;2023-11-19T11:08:52;96302.38;;;12.37;96.33
4012;BME280;2020;48.682;9.024;2023-11-19T11:11:18;96299.47;;;12.32;95.37
4012;BME280;2020;48.682;9.024;2023-11-19T11:13:47;96295.53;;;12.36;93.21
4012;BME280;2020;48.682;9.024;2023-11-19T11:16:13;96304.63;;;12.48;91.99
4012;BME280;2020;48.682;9.024;2023-11-19T11:18:39;96291.84;;;12.53;89.41
4012;BME280;2020;48.682;9.024;2023-11-19T11:21:14;96303.56;;;12.57;91.94
4012;BME280;2020;48.682;9.024;2023-11-19T11:29:17;96322.91;;;12.40;92.27
4012;BME280;2020;48.682;9.024;2023-11-19T11:37:44;96322.66;;;12.26;94.68
4012;BME280;2020;48.682;9.024;2023-11-19T11:40:17;96318.13;;;12.20;91.08
4012;BME280;2020;48.682;9.024;2023-11-19T11:42:46;96318.47;;;12.17;91.97
4012;BME280;2020;48.682;9.024;2023-11-19T11:45:12;96315.19;;;12.15;92.83
4012;BME280;2020;48.682;9.024;2023-11-19T11:50:08;96308.84;;;12.18;94.68
4012;BME280;2020;48.682;9.024;2023-11-19T11:52:33;96300.19;;;12.17;93.13
4012;BME280;2020;48.682;9.024;2023-11-19T11:55:05;96302.81;;;12.17;90.66
4012;BME280;2020;48.682;9.024;2023-11-19T11:57:36;96285.44;;;12.33;89.25
4012;BME280;2020;48.682;9.024;2023-11-19T12:00:02;96298.16;;;12.36;89.66
4012;BME280;2020;48.682;9.024;2023-11-19T12:02:30;96291.59;;;12.40;85.02
4012;BME280;2020;48.682;9.024;2023-11-19T12:04:56;96301.69;;;12.43;84.72
4012;BME280;2020;48.682;9.024;2023-11-19T12:07:23;96310.50;;;12.42;87.60
4012;BME280;2020;48.682;9.024;2023-11-19T12:09:52;96311.03;;;12.37;88.40
4012;BME280;2020;48.682;9.024;2023-11-19T12:12:25;96305.97;;;12.36;86.79
4012;BME280;2020;48.682;9.024;2023-11-19T12:15:02;96300.06;;;12.42;89.37
4012;BME280;2020;48.682;9.024;2023-11-19T12:22:27;96284.75;;;12.39;84.24
4012;BME280;2020;48.682;9.024;2023-11-19T12:24:56;96280.38;;;12.39;83.09
4012;BME280;2020;48.682;9.024;2023-11-19T12:27:21;96279.44;;;12.55;82.36
4012;BME280;2020;48.682;9.024;2023-11-19T12:29:51;96289.19;;;12.70;84.36
4012;BME280;2020;48.682;9.024;2023-11-19T12:32:17;96280.66;;;12.76;83.82
4012;BME280;2020;48.682;9.024;2023-11-19T12:34:42;96265.63;;;12.78;83.56
4012;BME280;2020;48.682;9.024;2023-11-19T12:37:07;96258.47;;;12.72;82.45
4012;BME280;2020;48.682;9.024;2023-11-19T12:39:34;96268.09;;;12.95;81.39
4012;BME280;2020;48.682;9.024;2023-11-19T12:41:59;96279.00;;;13.22;78.62
4012;BME280;2020;48.682;9.024;2023-11-19T12:44:25;96277.72;;;13.18;77.19
4012;BME280;2020;48.682;9.024;2023-11-19T12:47:06;96274.75;;;12.97;75.53
4012;BME280;2020;48.682;9.024;2023-11-19T12:49:32;96257.66;;;12.95;72.94
4012;BME280;2020;48.682;9.024;2023-11-19T12:51:58;96254.19;;;13.18;72.84
4012;BME280;2020;48.682;9.024;2023-11-19T12:54:37;96256.47;;;13.21;74.06
4012;BME280;2020;48.682;9.024;2023-11-19T12:57:03;96250.59;;;13.57;74.19
4012;BME280;2020;48.682;9.024;2023-11-19T12:59:30;96260.13;;;13.50;73.73
4012;BME280;2020;48.682;9.024;2023-11-19T13:01:59;96251.84;;;13.61;70.91
4012;BME280;2020;48.682;9.024;2023-11-19T13:04:29;96254.75;;;13.96;69.70
4012;BME280;2020;48.682;9.024;2023-11-19T13:06:56;96243.00;;;13.62;73.28
4012;BME280;2020;48.682;9.024;2023-11-19T13:09:28;96253.84;;;13.59;72.32
4012;BME280;2020;48.682;9.024;2023-11-19T13:11:55;96257.09;;;13.61;73.18
4012;BME280;2020;48.682;9.024;2023-11-19T13:14:21;96249.50;;;13.66;71.28
4012;BME280;2020;48.682;9.024;2023-11-19T13:16:47;96255.81;;;13.87;69.62
4012;BME280;2020;48.682;9.024;2023-11-19T13:19:13;96251.63;;;14.38;71.12
4012;BME280;2020;48.682;9.024;2023-11-19T13:21:38;96245.69;;;14.87;67.71
4012;BME280;2020;48.682;9.024;2023-11-19T13:24:05;96238.31;;;14.76;67.33
4012;BME280;2020;48.682;9.024;2023-11-19T13:26:31;96242.63;;;14.10;69.48
4012;BME280;2020;48.682;9.024;2023-11-19T13:28:56;96245.63;;;14.44;68.08
4012;BME280;2020;48.682;9.024;2023-11-19T13:31:22;96247.13;;;14.31;67.84
4012;BME280;2020;48.682;9.024;2023-11-19T13:33:47;96248.75;;;14.54;69.46